Time;durP1;ratioP1;P1;durP2;ratioP2;P2;SDS_P1;SDS_P2;PMS_P1;PMS_P2;Temp;Humidity;BMP_temperature;BMP_pressure;BME280_temperature;BME280_humidity;BME280_pressure;Samples;Min_cycle;Max_cycle;Signal;HPM_P1;HPM_P2
2023/10/03 00:00:32;;;;;;;33.75;23.85;;;;;;;;;;10364333;28;20052;-69
2023/10/03 00:05:29;;;;;;;28.60;22.23;;;;;;;;;;10348559;28;20126;-69
2023/10/03 00:10:28;;;;;;;29.02;24.05;;;;;;;;;;10368048;28;20050;-69
2023/10/03 00:15:25;;;;;;;28.90;22.42;;;;;;;;;;10358208;28;20125;-69
2023/10/03 00:20:22;;;;;;;32.55;23.45;;;;;;;;;;10355838;28;27123;-69
2023/10/03 00:25:19;;;;;;;31.63;23.50;;;;;;;;;;10364938;28;20058;-69
2023/10/03 00:30:16;;;;;;;34.03;24.08;;;;;;;;;;10364146;28;20055;-70
2023/10/03 00:35:14;;;;;;;32.30;23.27;;;;;;;;;;10370462;28;20048;-69
2023/10/03 00:40:44;;;;;;;32.40;23.95;;;;;;;;;;10358492;28;20211;-70
2023/10/03 00:45:33;;;;;;;32.67;24.00;;;;;;;;;;10349179;28;20052;-69
2023/10/03 00:50:31;;;;;;;33.63;23.02;;;;;;;;;;10361367;28;20411;-69
2023/10/03 00:55:29;;;;;;;33.85;23.73;;;;;;;;;;10355626;28;20067;-70
2023/10/03 01:00:25;;;;;;;34.30;23.52;;;;;;;;;;10356144;28;20055;-69
2023/10/03 01:05:23;;;;;;;31.35;21.35;;;;;;;;;;10356281;28;20599;-69
2023/10/03 01:10:21;;;;;;;26.23;21.83;;;;;;;;;;10355793;28;20048;-69
2023/10/03 01:15:26;;;;;;;29.77;21.77;;;;;;;;;;10357467;28;20113;-70
2023/10/03 01:20:34;;;;;;;26.70;22.63;;;;;;;;;;10364543;28;20496;-69
2023/10/03 01:25:32;;;;;;;28.30;22.92;;;;;;;;;;10359079;28;20121;-69
2023/10/03 01:30:28;;;;;;;27.20;21.67;;;;;;;;;;10361333;28;20048;-69
2023/10/03 01:35:25;;;;;;;27.17;21.42;;;;;;;;;;10364652;28;20063;-69
2023/10/03 01:40:21;;;;;;;25.55;21.75;;;;;;;;;;10355930;28;20670;-69
2023/10/03 01:45:26;;;;;;;32.20;23.02;;;;;;;;;;10352435;28;20074;-69
2023/10/03 01:50:23;;;;;;;29.83;22.90;;;;;;;;;;10356995;28;20752;-69
2023/10/03 01:55:20;;;;;;;25.65;20.90;;;;;;;;;;10361818;28;20511;-69
2023/10/03 02:00:24;;;;;;;25.60;21.90;;;;;;;;;;10366862;28;20478;-69
2023/10/03 02:05:23;;;;;;;30.23;22.10;;;;;;;;;;10360257;28;20413;-69
2023/10/03 02:10:19;;;;;;;27.15;22.05;;;;;;;;;;10358327;28;20048;-69
2023/10/03 02:15:26;;;;;;;30.73;22.30;;;;;;;;;;10356311;28;20048;-69
2023/10/03 02:20:25;;;;;;;24.73;20.67;;;;;;;;;;10360017;28;20082;-69
2023/10/03 02:25:24;;;;;;;23.38;20.38;;;;;;;;;;10364474;28;20508;-69
2023/10/03 02:30:23;;;;;;;24.88;19.98;;;;;;;;;;10345965;28;20071;-69
2023/10/03 02:35:24;;;;;;;28.38;20.75;;;;;;;;;;10365124;28;20050;-69
2023/10/03 02:40:26;;;;;;;25.33;20.30;;;;;;;;;;10359103;28;20054;-69
2023/10/03 02:45:25;;;;;;;27.83;20.52;;;;;;;;;;10367671;28;20048;-69
2023/10/03 02:50:26;;;;;;;26.90;20.35;;;;;;;;;;10332856;28;20059;-69
2023/10/03 02:55:22;;;;;;;27.65;20.55;;;;;;;;;;10376127;28;20044;-69
2023/10/03 03:00:19;;;;;;;23.45;20.15;;;;;;;;;;10365156;28;20048;-69
2023/10/03 03:05:16;;;;;;;24.70;20.30;;;;;;;;;;10368990;28;20079;-70
2023/10/03 03:10:18;;;;;;;25.73;20.85;;;;;;;;;;10366497;28;20055;-69
2023/10/03 03:15:23;;;;;;;26.00;20.70;;;;;;;;;;10351869;28;20518;-69
2023/10/03 03:20:27;;;;;;;26.73;20.60;;;;;;;;;;10365968;28;20051;-70
2023/10/03 03:25:42;;;;;;;25.65;21.38;;;;;;;;;;10371078;28;20048;-69
2023/10/03 03:30:45;;;;;;;26.90;20.17;;;;;;;;;;10372649;28;20052;-70
2023/10/03 03:35:42;;;;;;;24.55;19.30;;;;;;;;;;10352520;28;20073;-69
2023/10/03 03:40:38;;;;;;;22.98;18.65;;;;;;;;;;10365453;28;20051;-70
2023/10/03 03:45:35;;;;;;;26.20;18.83;;;;;;;;;;10360234;28;20067;-69
2023/10/03 03:50:32;;;;;;;25.48;18.55;;;;;;;;;;10359235;28;20060;-69
2023/10/03 03:55:31;;;;;;;29.38;19.10;;;;;;;;;;10368757;28;20135;-69
2023/10/03 04:00:29;;;;;;;23.23;17.98;;;;;;;;;;10365947;28;20447;-69
2023/10/03 04:05:25;;;;;;;24.08;18.75;;;;;;;;;;10352095;28;20048;-69
2023/10/03 04:10:22;;;;;;;22.25;17.75;;;;;;;;;;10372801;28;20062;-69
2023/10/03 04:15:19;;;;;;;23.08;17.73;;;;;;;;;;10363131;28;20496;-69
2023/10/03 04:25:21;;;;;;;23.58;17.50;;;;;;;;;;10351886;28;20484;-69
2023/10/03 04:30:19;;;;;;;18.95;16.77;;;;;;;;;;10367277;28;20048;-69
2023/10/03 04:35:18;;;;;;;22.52;16.33;;;;;;;;;;10367645;28;20047;-69
2023/10/03 04:40:16;;;;;;;24.10;16.48;;;;;;;;;;10362113;28;20171;-70
2023/10/03 04:45:14;;;;;;;22.45;17.50;;;;;;;;;;10362323;28;20044;-69
2023/10/03 04:50:11;;;;;;;22.77;17.45;;;;;;;;;;10370493;28;20397;-69
2023/10/03 04:55:07;;;;;;;21.70;17.38;;;;;;;;;;10367964;28;20761;-70
2023/10/03 05:00:05;;;;;;;20.70;17.10;;;;;;;;;;10363926;28;20071;-69
2023/10/03 05:05:02;;;;;;;17.42;15.23;;;;;;;;;;10361859;28;20047;-70
2023/10/03 05:09:58;;;;;;;21.33;16.65;;;;;;;;;;10351570;28;20110;-69
2023/10/03 05:14:55;;;;;;;22.45;16.88;;;;;;;;;;10359388;28;20166;-69
2023/10/03 05:19:51;;;;;;;20.50;17.00;;;;;;;;;;10365892;28;20048;-69
2023/10/03 05:24:49;;;;;;;30.58;17.05;;;;;;;;;;10370628;28;20063;-69
2023/10/03 05:29:46;;;;;;;21.63;15.80;;;;;;;;;;10372471;28;20507;-69
2023/10/03 05:34:42;;;;;;;20.33;15.48;;;;;;;;;;10363890;28;20072;-69
2023/10/03 05:39:39;;;;;;;23.90;16.80;;;;;;;;;;10362888;28;20538;-69
2023/10/03 05:44:37;;;;;;;20.10;16.67;;;;;;;;;;10359367;28;20051;-69
2023/10/03 05:49:33;;;;;;;23.13;16.52;;;;;;;;;;10366159;28;20487;-70
2023/10/03 05:54:30;;;;;;;20.73;16.88;;;;;;;;;;10359142;28;20050;-69
2023/10/03 05:59:27;;;;;;;24.35;15.95;;;;;;;;;;10353313;28;20036;-69
2023/10/03 06:04:24;;;;;;;20.45;16.45;;;;;;;;;;10362792;28;20086;-69
2023/10/03 06:09:20;;;;;;;22.65;16.45;;;;;;;;;;10370777;28;20123;-69
2023/10/03 06:14:17;;;;;;;21.55;16.83;;;;;;;;;;10373775;28;20111;-69
2023/10/03 06:19:13;;;;;;;21.33;15.68;;;;;;;;;;10353886;28;20052;-69
2023/10/03 06:24:09;;;;;;;24.05;16.30;;;;;;;;;;10350415;28;20036;-69
2023/10/03 06:29:06;;;;;;;29.45;16.23;;;;;;;;;;10348855;28;20071;-69
2023/10/03 06:34:02;;;;;;;25.98;16.58;;;;;;;;;;10355871;28;20048;-69
2023/10/03 06:38:59;;;;;;;25.65;16.30;;;;;;;;;;10352103;28;20052;-69
2023/10/03 06:43:55;;;;;;;21.67;15.10;;;;;;;;;;10357835;28;20055;-69
2023/10/03 06:48:52;;;;;;;25.27;16.80;;;;;;;;;;10359020;28;20048;-69
2023/10/03 06:53:48;;;;;;;25.42;16.73;;;;;;;;;;10357991;28;20080;-70
2023/10/03 06:58:46;;;;;;;22.90;15.80;;;;;;;;;;10356637;28;20060;-69
2023/10/03 07:03:42;;;;;;;21.60;15.60;;;;;;;;;;10358763;28;20462;-69
2023/10/03 07:08:41;;;;;;;21.65;14.43;;;;;;;;;;10357936;28;20424;-70
2023/10/03 07:13:38;;;;;;;26.95;15.48;;;;;;;;;;10352991;28;20078;-69
2023/10/03 07:18:35;;;;;;;23.25;15.30;;;;;;;;;;10345581;28;20052;-69
2023/10/03 07:23:31;;;;;;;26.48;14.93;;;;;;;;;;10350506;28;20134;-69
2023/10/03 07:28:31;;;;;;;24.58;15.00;;;;;;;;;;10364955;28;20064;-70
2023/10/03 07:33:28;;;;;;;31.77;15.88;;;;;;;;;;10360822;28;20478;-70
2023/10/03 07:38:24;;;;;;;29.75;15.73;;;;;;;;;;10356556;28;20044;-70
2023/10/03 07:43:21;;;;;;;26.60;15.32;;;;;;;;;;10366399;28;20128;-70
2023/10/03 07:48:18;;;;;;;22.83;14.75;;;;;;;;;;10364237;28;20123;-70
2023/10/03 07:53:16;;;;;;;34.22;16.45;;;;;;;;;;10367409;28;20074;-69
2023/10/03 07:58:14;;;;;;;27.27;16.52;;;;;;;;;;10346283;28;20071;-69
2023/10/03 08:03:11;;;;;;;25.52;15.20;;;;;;;;;;10357914;28;20718;-70
2023/10/03 08:08:08;;;;;;;34.00;15.43;;;;;;;;;;10357097;28;20609;-70
2023/10/03 08:13:05;;;;;;;25.90;16.08;;;;;;;;;;10358540;28;20773;-69
2023/10/03 08:18:03;;;;;;;31.33;16.48;;;;;;;;;;10368358;28;20055;-69
2023/10/03 08:23:03;;;;;;;26.48;15.57;;;;;;;;;;10365180;28;20658;-69
2023/10/03 08:28:00;;;;;;;29.38;16.02;;;;;;;;;;10362002;28;20052;-69
2023/10/03 08:33:06;;;;;;;28.42;16.52;;;;;;;;;;10374810;28;20048;-70
2023/10/03 08:38:06;;;;;;;25.10;14.98;;;;;;;;;;10364143;28;20602;-70
2023/10/03 08:43:08;;;;;;;21.17;15.20;;;;;;;;;;10338196;28;20067;-70
2023/10/03 08:48:06;;;;;;;23.08;14.68;;;;;;;;;;10356103;28;20135;-70
2023/10/03 08:53:13;;;;;;;21.05;14.15;;;;;;;;;;10354889;28;20443;-70
2023/10/03 08:58:13;;;;;;;24.33;15.00;;;;;;;;;;10352382;28;20101;-70
2023/10/03 09:03:11;;;;;;;23.27;15.15;;;;;;;;;;10362067;28;20105;-70
2023/10/03 09:08:10;;;;;;;22.95;14.13;;;;;;;;;;10364686;28;20689;-70
2023/10/03 09:13:07;;;;;;;25.02;14.90;;;;;;;;;;10366197;28;20052;-70
2023/10/03 09:18:04;;;;;;;21.83;12.65;;;;;;;;;;10357361;28;20040;-70
2023/10/03 09:23:05;;;;;;;26.45;13.27;;;;;;;;;;10363870;28;20436;-69
2023/10/03 09:28:05;;;;;;;29.27;12.20;;;;;;;;;;10361662;28;20140;-69
2023/10/03 09:33:04;;;;;;;24.33;13.05;;;;;;;;;;10364187;28;20554;-69
2023/10/03 09:38:06;;;;;;;18.05;12.18;;;;;;;;;;10352221;28;20511;-69
2023/10/03 09:43:11;;;;;;;23.10;14.10;;;;;;;;;;10360895;28;20492;-69
2023/10/03 09:48:08;;;;;;;22.15;13.50;;;;;;;;;;10360553;28;20054;-70
2023/10/03 09:53:06;;;;;;;16.48;12.60;;;;;;;;;;10366165;28;20055;-70
2023/10/03 09:58:04;;;;;;;21.63;13.40;;;;;;;;;;10361456;28;20514;-69
2023/10/03 10:03:04;;;;;;;23.02;12.75;;;;;;;;;;10366093;28;20153;-70
2023/10/03 10:08:07;;;;;;;23.95;13.52;;;;;;;;;;10368067;28;20040;-69
2023/10/03 10:13:20;;;;;;;27.52;13.05;;;;;;;;;;10334846;28;20060;-69
2023/10/03 10:18:37;;;;;;;20.20;12.65;;;;;;;;;;10364028;28;20070;-69
2023/10/03 10:23:36;;;;;;;18.08;12.25;;;;;;;;;;10350468;28;20426;-69
2023/10/03 10:28:34;;;;;;;18.90;11.52;;;;;;;;;;10365281;28;20063;-69
2023/10/03 10:33:30;;;;;;;15.18;10.90;;;;;;;;;;10358197;28;20095;-69
2023/10/03 10:38:33;;;;;;;20.65;12.85;;;;;;;;;;10356302;28;20039;-69
2023/10/03 10:43:32;;;;;;;16.67;11.23;;;;;;;;;;10361454;28;20040;-69
2023/10/03 10:48:39;;;;;;;16.73;11.57;;;;;;;;;;10352031;28;20052;-69
2023/10/03 10:53:40;;;;;;;16.65;11.52;;;;;;;;;;10341659;28;20185;-69
2023/10/03 10:58:47;;;;;;;14.32;11.48;;;;;;;;;;10358218;28;20054;-69
2023/10/03 11:03:44;;;;;;;18.55;13.45;;;;;;;;;;10342718;28;20044;-70
2023/10/03 11:08:50;;;;;;;14.88;13.48;;;;;;;;;;10355772;28;20105;-70
2023/10/03 11:13:48;;;;;;;15.75;14.07;;;;;;;;;;10351766;28;20478;-69
2023/10/03 11:18:44;;;;;;;15.55;13.98;;;;;;;;;;10364995;28;20738;-69
2023/10/03 11:24:01;;;;;;;13.40;11.60;;;;;;;;;;10345189;28;20079;-69
2023/10/03 11:28:57;;;;;;;17.77;12.43;;;;;;;;;;10362981;28;23445;-69
2023/10/03 11:33:59;;;;;;;14.75;11.55;;;;;;;;;;10364597;28;20829;-69
2023/10/03 11:38:56;;;;;;;;;;;;;;;;;;10364655;28;20098;-69
2023/10/03 11:43:52;;;;;;;14.48;9.52;;;;;;;;;;10367837;28;19951;-69
2023/10/03 11:48:56;;;;;;;10.10;9.07;;;;;;;;;;10330109;28;1028495;-69
2023/10/03 11:53:53;;;;;;;8.18;7.40;;;;;;;;;;10370415;28;20064;-69
2023/10/03 11:58:50;;;;;;;11.63;7.20;;;;;;;;;;10364250;28;20048;-69
2023/10/03 12:03:46;;;;;;;11.02;8.23;;;;;;;;;;10359975;28;20060;-69
2023/10/03 12:08:43;;;;;;;12.43;7.97;;;;;;;;;;10361243;28;20135;-70
2023/10/03 12:13:40;;;;;;;12.43;7.57;;;;;;;;;;10347864;28;20063;-69
2023/10/03 12:18:37;;;;;;;7.63;6.93;;;;;;;;;;10366417;28;20411;-70
2023/10/03 12:23:35;;;;;;;10.32;6.20;;;;;;;;;;10358379;28;20702;-69
2023/10/03 12:28:32;;;;;;;6.53;5.93;;;;;;;;;;10359956;28;20584;-69
2023/10/03 12:33:30;;;;;;;7.63;6.63;;;;;;;;;;10372693;28;20048;-71
2023/10/03 12:38:26;;;;;;;7.00;5.85;;;;;;;;;;10350051;28;20044;-70
2023/10/03 12:43:23;;;;;;;8.93;6.57;;;;;;;;;;10358523;28;20044;-70
2023/10/03 12:48:19;;;;;;;6.28;5.68;;;;;;;;;;10351056;28;20044;-70
2023/10/03 12:53:16;;;;;;;6.25;5.65;;;;;;;;;;10364863;28;20110;-71
2023/10/03 12:58:18;;;;;;;8.70;6.70;;;;;;;;;;10351788;28;20064;-71
2023/10/03 13:03:14;;;;;;;12.68;6.53;;;;;;;;;;10365530;28;20070;-71
2023/10/03 13:08:12;;;;;;;10.60;6.20;;;;;;;;;;10363421;28;20144;-71
2023/10/03 13:13:09;;;;;;;16.55;6.80;;;;;;;;;;10376690;28;20051;-71
2023/10/03 13:18:05;;;;;;;7.35;6.50;;;;;;;;;;10368871;28;20044;-71
2023/10/03 13:23:02;;;;;;;9.07;5.93;;;;;;;;;;10357644;28;20044;-71
2023/10/03 13:27:58;;;;;;;11.70;6.93;;;;;;;;;;10370217;28;20098;-71
2023/10/03 13:32:56;;;;;;;11.07;6.15;;;;;;;;;;10361181;28;20056;-71
2023/10/03 13:37:54;;;;;;;9.95;6.78;;;;;;;;;;10362255;28;20052;-70
2023/10/03 13:42:51;;;;;;;7.45;6.30;;;;;;;;;;10366484;28;20500;-70
2023/10/03 13:47:49;;;;;;;10.70;5.95;;;;;;;;;;10357833;28;20094;-70
2023/10/03 13:52:47;;;;;;;9.80;6.05;;;;;;;;;;10363752;28;20507;-71
2023/10/03 13:57:45;;;;;;;8.30;7.40;;;;;;;;;;10358625;28;20041;-71
2023/10/03 14:02:46;;;;;;;11.07;7.35;;;;;;;;;;10364978;28;20044;-72
2023/10/03 14:07:43;;;;;;;10.47;8.20;;;;;;;;;;10362496;28;20044;-72
2023/10/03 14:12:39;;;;;;;10.18;8.85;;;;;;;;;;10365305;28;20044;-71
2023/10/03 14:17:36;;;;;;;9.65;7.47;;;;;;;;;;10377586;28;20054;-72
2023/10/03 14:22:32;;;;;;;9.35;6.82;;;;;;;;;;10353353;28;20052;-71
2023/10/03 14:27:29;;;;;;;9.38;7.90;;;;;;;;;;10366125;28;20066;-72
2023/10/03 14:32:26;;;;;;;14.23;7.68;;;;;;;;;;10359994;28;20054;-71
2023/10/03 14:37:22;;;;;;;10.52;6.75;;;;;;;;;;10362483;28;20519;-72
2023/10/03 14:42:18;;;;;;;7.88;5.53;;;;;;;;;;10356030;28;20079;-72
2023/10/03 14:47:15;;;;;;;13.85;6.15;;;;;;;;;;10331056;28;20090;-71
2023/10/03 14:52:13;;;;;;;12.90;6.57;;;;;;;;;;10353807;28;20040;-71
2023/10/03 14:57:10;;;;;;;14.10;5.97;;;;;;;;;;10350924;28;20083;-71
2023/10/03 15:02:07;;;;;;;11.57;5.57;;;;;;;;;;10367374;28;20059;-72
2023/10/03 15:07:03;;;;;;;9.32;5.22;;;;;;;;;;10361011;28;20044;-72
2023/10/03 15:12:00;;;;;;;11.15;5.30;;;;;;;;;;10362647;28;20064;-72
2023/10/03 15:16:59;;;;;;;9.30;4.68;;;;;;;;;;10361069;28;20058;-72
2023/10/03 15:21:56;;;;;;;11.30;5.10;;;;;;;;;;10353137;28;20052;-69
2023/10/03 15:26:52;;;;;;;12.70;5.05;;;;;;;;;;10360988;28;20052;-71
2023/10/03 15:31:48;;;;;;;10.02;5.45;;;;;;;;;;10344667;28;20041;-71
2023/10/03 15:36:47;;;;;;;16.00;5.50;;;;;;;;;;10361990;28;20048;-72
2023/10/03 15:41:45;;;;;;;9.27;5.32;;;;;;;;;;10359467;28;20057;-71
2023/10/03 15:46:41;;;;;;;9.27;5.38;;;;;;;;;;10350171;28;20369;-72
2023/10/03 15:51:38;;;;;;;11.77;5.72;;;;;;;;;;10338581;28;20052;-71
2023/10/03 16:01:55;;;;;;;10.98;5.80;;;;;;;;;;10328862;28;20447;-71
2023/10/03 16:06:53;;;;;;;14.00;5.75;;;;;;;;;;10326548;28;20102;-71
2023/10/03 16:11:53;;;;;;;11.48;5.55;;;;;;;;;;10309535;28;20049;-71
2023/10/03 16:22:09;;;;;;;7.07;4.70;;;;;;;;;;10340663;28;20052;-71
2023/10/03 16:27:22;;;;;;;10.27;5.60;;;;;;;;;;10334283;28;20041;-71
2023/10/03 16:32:19;;;;;;;8.65;5.65;;;;;;;;;;10383308;28;20094;-71
2023/10/03 16:37:16;;;;;;;8.13;6.03;;;;;;;;;;10376404;28;20044;-71
2023/10/03 16:42:12;;;;;;;11.43;5.72;;;;;;;;;;10374228;28;20489;-71
2023/10/03 16:47:09;;;;;;;13.63;6.18;;;;;;;;;;10382221;28;20055;-71
2023/10/03 16:52:06;;;;;;;14.05;5.95;;;;;;;;;;10385239;28;20047;-71
2023/10/03 16:57:05;;;;;;;8.10;6.43;;;;;;;;;;10384930;28;20039;-71
2023/10/03 17:02:01;;;;;;;12.25;6.88;;;;;;;;;;10378101;28;20082;-71
2023/10/03 17:06:58;;;;;;;9.15;6.38;;;;;;;;;;10379493;28;20052;-71
2023/10/03 17:11:57;;;;;;;11.65;6.47;;;;;;;;;;10388934;28;20392;-70
2023/10/03 17:16:53;;;;;;;7.75;6.22;;;;;;;;;;10379745;28;20427;-71
2023/10/03 17:21:50;;;;;;;12.55;6.15;;;;;;;;;;10360896;28;20055;-71
2023/10/03 17:26:46;;;;;;;8.65;6.65;;;;;;;;;;10369956;28;20044;-72
2023/10/03 17:31:42;;;;;;;8.48;6.25;;;;;;;;;;10378295;28;20055;-72
2023/10/03 17:36:40;;;;;;;10.65;7.20;;;;;;;;;;10372388;28;20479;-71
2023/10/03 17:41:37;;;;;;;8.15;7.00;;;;;;;;;;10363180;28;20079;-72
2023/10/03 17:46:34;;;;;;;8.93;6.22;;;;;;;;;;10380308;28;20560;-71
2023/10/03 17:51:33;;;;;;;7.78;6.63;;;;;;;;;;10376180;28;20054;-72
2023/10/03 18:01:49;;;;;;;7.22;6.22;;;;;;;;;;10310246;28;20045;-71
2023/10/03 18:06:48;;;;;;;10.73;6.80;;;;;;;;;;10312123;28;20507;-72
2023/10/03 18:11:46;;;;;;;10.10;6.32;;;;;;;;;;10302134;28;20056;-71
2023/10/03 18:16:42;;;;;;;13.23;7.50;;;;;;;;;;10305000;28;20045;-72
2023/10/03 18:21:38;;;;;;;14.27;6.00;;;;;;;;;;10310032;28;20500;-71
2023/10/03 18:26:37;;;;;;;9.13;6.40;;;;;;;;;;10310859;28;20463;-71
2023/10/03 18:31:33;;;;;;;8.55;6.43;;;;;;;;;;10311438;28;20098;-71
2023/10/03 18:36:29;;;;;;;10.38;7.40;;;;;;;;;;10311273;28;20049;-71
2023/10/03 18:41:26;;;;;;;10.98;6.72;;;;;;;;;;10288326;28;20058;-71
2023/10/03 18:46:22;;;;;;;9.45;6.90;;;;;;;;;;10311354;28;20124;-71
2023/10/03 18:51:19;;;;;;;13.57;6.90;;;;;;;;;;10310825;28;20063;-71
2023/10/03 18:56:15;;;;;;;11.60;7.05;;;;;;;;;;10310389;28;20052;-71
2023/10/03 19:01:18;;;;;;;19.17;7.00;;;;;;;;;;10299788;28;20071;-71
2023/10/03 19:06:23;;;;;;;9.35;6.15;;;;;;;;;;10309984;28;20643;-71
2023/10/03 19:11:20;;;;;;;14.68;6.90;;;;;;;;;;10301765;28;20099;-71
2023/10/03 19:16:17;;;;;;;10.75;6.40;;;;;;;;;;10302185;28;20531;-71
2023/10/03 19:21:14;;;;;;;12.18;6.60;;;;;;;;;;10303378;28;20044;-71
2023/10/03 19:26:10;;;;;;;15.55;6.70;;;;;;;;;;10303597;28;20049;-71
2023/10/03 19:31:07;;;;;;;13.45;6.50;;;;;;;;;;10307988;28;20056;-71
2023/10/03 19:36:04;;;;;;;10.52;6.28;;;;;;;;;;10303281;28;20068;-71
2023/10/03 19:41:01;;;;;;;15.00;8.00;;;;;;;;;;10310214;28;20142;-71
2023/10/03 19:45:57;;;;;;;7.13;6.50;;;;;;;;;;10316926;28;20056;-71
2023/10/03 19:50:56;;;;;;;12.18;6.93;;;;;;;;;;10317686;28;20052;-72
2023/10/03 19:55:52;;;;;;;11.88;6.60;;;;;;;;;;10315914;28;20045;-71
2023/10/03 20:00:49;;;;;;;13.38;6.45;;;;;;;;;;10308304;28;20060;-71
2023/10/03 20:05:46;;;;;;;13.80;6.68;;;;;;;;;;10316871;28;20052;-70
2023/10/03 20:10:43;;;;;;;11.00;6.60;;;;;;;;;;10304711;28;20048;-71
2023/10/03 20:15:39;;;;;;;12.23;6.30;;;;;;;;;;10292596;28;20106;-71
2023/10/03 20:20:36;;;;;;;6.55;5.80;;;;;;;;;;10316241;28;20531;-71
2023/10/03 20:25:32;;;;;;;13.50;7.07;;;;;;;;;;10315885;28;20048;-71
2023/10/03 20:30:28;;;;;;;12.32;6.38;;;;;;;;;;10310833;28;20041;-72
2023/10/03 20:35:25;;;;;;;13.90;6.57;;;;;;;;;;10312889;28;20076;-71
2023/10/03 20:40:22;;;;;;;10.77;6.95;;;;;;;;;;10312967;28;20442;-71
2023/10/03 20:45:18;;;;;;;7.30;6.03;;;;;;;;;;10298518;28;20416;-71
2023/10/03 20:50:16;;;;;;;9.05;6.85;;;;;;;;;;10310051;28;20048;-71
2023/10/03 20:55:12;;;;;;;12.23;7.07;;;;;;;;;;10310685;28;20044;-71
2023/10/03 21:00:12;;;;;;;10.80;6.55;;;;;;;;;;10310495;28;20099;-72
2023/10/03 21:05:13;;;;;;;10.43;7.15;;;;;;;;;;10314915;28;20131;-72
2023/10/03 21:10:09;;;;;;;9.65;7.75;;;;;;;;;;10318442;28;20052;-71
2023/10/03 21:15:07;;;;;;;12.02;7.07;;;;;;;;;;10307284;28;20139;-71
2023/10/03 21:20:05;;;;;;;12.85;8.20;;;;;;;;;;10307423;28;20055;-71
2023/10/03 21:25:01;;;;;;;13.73;7.72;;;;;;;;;;10313178;28;20095;-71
2023/10/03 21:29:58;;;;;;;11.10;7.75;;;;;;;;;;10309109;28;20427;-71
2023/10/03 21:34:54;;;;;;;11.90;6.70;;;;;;;;;;10313060;28;20420;-71
2023/10/03 21:39:50;;;;;;;13.40;8.18;;;;;;;;;;10313332;28;20091;-71
2023/10/03 21:44:47;;;;;;;18.13;7.25;;;;;;;;;;10310658;28;20080;-71
2023/10/03 21:49:43;;;;;;;16.63;7.63;;;;;;;;;;10309614;28;20067;-71
2023/10/03 21:54:39;;;;;;;17.20;7.60;;;;;;;;;;10312729;28;20053;-71
2023/10/03 21:59:36;;;;;;;13.48;7.63;;;;;;;;;;10310050;28;20574;-71
2023/10/03 22:04:33;;;;;;;10.07;7.28;;;;;;;;;;10311826;28;20048;-71
2023/10/03 22:09:29;;;;;;;14.05;7.10;;;;;;;;;;10303251;28;20050;-70
2023/10/03 22:14:27;;;;;;;15.82;7.28;;;;;;;;;;10303587;28;20044;-71
2023/10/03 22:19:24;;;;;;;11.18;6.53;;;;;;;;;;10312491;28;20052;-71
2023/10/03 22:24:26;;;;;;;8.80;6.53;;;;;;;;;;10309980;28;20531;-71
2023/10/03 22:29:22;;;;;;;17.33;6.68;;;;;;;;;;10308105;28;20525;-71
2023/10/03 22:34:19;;;;;;;9.65;5.60;;;;;;;;;;10305310;28;20048;-70
2023/10/03 22:39:16;;;;;;;8.23;5.95;;;;;;;;;;10307165;28;20562;-70
2023/10/03 22:44:13;;;;;;;7.90;6.10;;;;;;;;;;10309741;28;20516;-70
2023/10/03 22:49:09;;;;;;;11.57;6.25;;;;;;;;;;10311092;28;20115;-71
2023/10/03 22:54:05;;;;;;;9.43;6.45;;;;;;;;;;10310575;28;20055;-70
2023/10/03 22:59:03;;;;;;;8.98;6.40;;;;;;;;;;10310713;28;20087;-71
2023/10/03 23:03:59;;;;;;;16.60;7.38;;;;;;;;;;10307587;28;20528;-71
2023/10/03 23:08:56;;;;;;;9.63;6.10;;;;;;;;;;10307286;28;20048;-71
2023/10/03 23:13:52;;;;;;;11.85;7.25;;;;;;;;;;10305565;28;20045;-70
2023/10/03 23:18:49;;;;;;;11.20;7.43;;;;;;;;;;10317187;28;20074;-71
2023/10/03 23:23:46;;;;;;;12.30;7.35;;;;;;;;;;10311796;28;20487;-71
2023/10/03 23:28:42;;;;;;;11.38;6.45;;;;;;;;;;10312391;28;20044;-70
2023/10/03 23:33:38;;;;;;;14.77;6.68;;;;;;;;;;10293342;28;20068;-71
2023/10/03 23:38:35;;;;;;;16.77;6.93;;;;;;;;;;10317023;28;20044;-71
2023/10/03 23:43:32;;;;;;;11.70;7.18;;;;;;;;;;10317584;28;20048;-71
2023/10/03 23:48:29;;;;;;;10.13;6.70;;;;;;;;;;10318288;28;20046;-70
2023/10/03 23:53:26;;;;;;;8.73;5.72;;;;;;;;;;10316002;28;20504;-71
2023/10/03 23:58:25;;;;;;;13.45;6.43;;;;;;;;;;10309245;28;20055;-71
